Time;durP1;ratioP1;P1;durP2;ratioP2;P2;SDS_P1;SDS_P2;PMS_P1;PMS_P2;Temp;Humidity;BMP_temperature;BMP_pressure;BME280_temperature;BME280_humidity;BME280_pressure;Samples;Min_cycle;Max_cycle;Signal;HPM_P1;HPM_P2
2022/12/30 00:00:57;;;;;;;10.00;4.30;;;;;;;8.19;74.94;100078.98;107523;1251;99409;-80
2022/12/30 00:03:22;;;;;;;10.30;3.80;;;;;;;8.20;74.97;100078.04;107178;1242;138678;-80
2022/12/30 00:05:47;;;;;;;12.00;3.40;;;;;;;8.23;75.00;100082.92;107473;1243;97846;-80
2022/12/30 00:10:57;;;;;;;10.40;3.20;;;;;;;8.23;75.13;100087.34;107432;1235;99625;-79
2022/12/30 00:35:32;;;;;;;8.20;3.40;;;;;;;8.33;75.45;100096.73;107478;1228;111007;-79
2022/12/30 00:37:58;;;;;;;9.60;3.20;;;;;;;8.35;75.46;100095.41;107259;1237;139474;-80
2022/12/30 00:40:23;;;;;;;7.20;3.10;;;;;;;8.36;75.48;100088.09;107354;1236;99082;-79
2022/12/30 00:45:35;;;;;;;9.20;3.30;;;;;;;8.35;75.56;100103.09;107146;1250;138981;-80
2022/12/30 00:48:00;;;;;;;7.70;3.10;;;;;;;8.33;75.66;100109.54;107437;1243;103025;-79
2022/12/30 00:56:12;;;;;;;5.50;3.00;;;;;;;8.29;75.77;100117.89;107201;1237;138595;-80
2022/12/30 00:58:38;;;;;;;9.90;3.40;;;;;;;8.26;75.76;100125.67;107274;1246;113443;-80
2022/12/30 01:01:03;;;;;;;9.40;3.40;;;;;;;8.25;75.82;100125.73;107241;1244;99157;-81
2022/12/30 01:03:28;;;;;;;7.30;3.10;;;;;;;8.24;75.86;100127.88;107276;1251;138336;-79
2022/12/30 01:05:53;;;;;;;11.00;3.10;;;;;;;8.23;75.73;100131.15;107304;1243;99092;-79
2022/12/30 01:08:19;;;;;;;12.40;5.00;;;;;;;8.22;75.91;100134.73;107244;1246;139661;-79
2022/12/30 01:10:44;;;;;;;8.70;3.20;;;;;;;8.21;75.82;100128.19;107390;1251;99203;-78
2022/12/30 01:13:09;;;;;;;7.00;3.20;;;;;;;8.20;75.90;100123.80;107379;1243;99009;-78
2022/12/30 01:15:35;;;;;;;10.20;3.80;;;;;;;8.19;76.03;100129.54;107179;1242;138344;-78
2022/12/30 01:18:00;;;;;;;7.80;3.10;;;;;;;8.17;75.94;100118.75;107315;1236;99122;-78
2022/12/30 01:20:26;;;;;;;6.70;2.50;;;;;;;8.16;76.02;100116.13;107315;1242;138726;-79
2022/12/30 01:22:51;;;;;;;7.50;3.30;;;;;;;8.14;75.95;100115.67;107308;1237;99082;-80
2022/12/30 01:25:17;;;;;;;8.00;3.30;;;;;;;8.11;76.03;100120.42;107340;1249;97924;-79
2022/12/30 01:27:42;;;;;;;9.50;3.20;;;;;;;8.10;75.99;100125.81;107226;1244;138401;-81
2022/12/30 01:30:08;;;;;;;6.30;2.40;;;;;;;8.10;76.04;100128.66;107335;1242;99025;-79
2022/12/30 01:32:36;;;;;;;7.20;2.80;;;;;;;8.10;76.01;100140.58;107307;1244;138588;-80
2022/12/30 01:35:03;;;;;;;7.20;2.80;;;;;;;8.10;76.00;100143.06;107432;1245;99829;-79
2022/12/30 01:37:28;;;;;;;5.80;2.60;;;;;;;8.10;75.96;100143.23;107384;1243;98327;-80
2022/12/30 01:39:53;;;;;;;6.10;2.70;;;;;;;8.10;75.97;100140.55;107303;1236;138776;-79
2022/12/30 01:42:35;;;;;;;5.50;2.80;;;;;;;8.08;75.94;100147.23;107342;1253;112334;-79
2022/12/30 01:45:21;;;;;;;7.20;3.20;;;;;;;8.08;75.92;100149.38;107248;1251;138556;-78
2022/12/30 01:47:55;;;;;;;7.70;2.30;;;;;;;8.05;76.00;100152.67;107397;1244;107657;-78
2022/12/30 01:50:28;;;;;;;6.90;2.70;;;;;;;8.03;75.89;100156.67;107307;1235;138656;-79
2022/12/30 01:53:12;;;;;;;9.30;2.90;;;;;;;8.00;75.88;100159.84;107456;1235;100093;-78
2022/12/30 01:55:47;;;;;;;7.00;2.50;;;;;;;7.97;75.97;100164.59;107447;1244;112152;-78
2022/12/30 01:58:18;;;;;;;5.90;2.60;;;;;;;7.94;76.01;100169.54;107435;1227;100512;-79
2022/12/30 02:00:44;;;;;;;6.50;3.00;;;;;;;7.91;76.01;100171.42;107400;1251;108109;-79
2022/12/30 02:03:10;;;;;;;12.00;3.20;;;;;;;7.89;76.06;100172.23;107222;1236;138770;-79
2022/12/30 02:05:39;;;;;;;6.90;2.90;;;;;;;7.88;76.10;100175.27;107411;1252;99006;-79
2022/12/30 02:08:08;;;;;;;8.00;2.60;;;;;;;7.88;76.15;100177.41;107322;1243;138513;-81
2022/12/30 02:10:36;;;;;;;9.60;3.20;;;;;;;7.86;76.17;100175.73;107366;1235;108577;-79
2022/12/30 02:13:01;;;;;;;7.30;3.00;;;;;;;7.86;76.17;100175.88;107293;1257;99053;-79
2022/12/30 02:15:31;;;;;;;8.50;3.50;;;;;;;7.87;76.28;100176.21;107292;1244;139113;-79
2022/12/30 02:18:21;;;;;;;6.60;3.60;;;;;;;7.88;76.33;100175.13;107411;1251;113430;-79
2022/12/30 02:21:24;;;;;;;8.30;2.80;;;;;;;7.88;76.48;100176.16;107494;1246;138531;-79
2022/12/30 02:23:58;;;;;;;11.00;3.90;;;;;;;7.89;76.45;100169.20;107408;1229;108450;-79
2022/12/30 02:26:39;;;;;;;5.70;2.30;;;;;;;7.90;76.48;100173.45;107275;1243;139315;-79
2022/12/30 02:29:25;;;;;;;6.20;3.00;;;;;;;7.89;76.51;100167.96;107311;1242;99088;-79
2022/12/30 02:32:11;;;;;;;9.30;3.70;;;;;;;7.86;76.48;100164.15;107322;1243;138493;-79
2022/12/30 02:34:45;;;;;;;5.30;2.60;;;;;;;7.84;76.54;100166.70;107311;1245;99082;-79
2022/12/30 02:37:46;;;;;;;6.90;3.10;;;;;;;7.82;76.54;100173.36;107415;1228;106553;-79
2022/12/30 02:40:22;;;;;;;6.40;2.50;;;;;;;7.79;76.62;100181.52;107198;1241;138666;-79
2022/12/30 02:45:58;;;;;;;4.70;2.40;;;;;;;7.77;76.75;100183.05;107179;1244;139072;-79
2022/12/30 02:48:28;;;;;;;8.60;2.60;;;;;;;7.74;76.76;100186.35;107264;1246;99090;-79
2022/12/30 02:53:40;;;;;;;7.80;3.00;;;;;;;7.68;76.85;100196.20;107221;1246;99052;-80
2022/12/30 02:56:07;;;;;;;5.80;2.30;;;;;;;7.67;76.83;100200.17;107244;1244;138884;-80
2022/12/30 02:58:34;;;;;;;5.10;2.30;;;;;;;7.63;76.88;100194.61;107436;1244;100718;-79
2022/12/30 03:04:17;;;;;;;9.40;3.50;;;;;;;7.60;76.97;100194.38;107212;1246;139120;-80
2022/12/30 03:07:04;;;;;;;14.10;2.90;;;;;;;7.59;77.02;100192.27;107369;1251;99346;-79
2022/12/30 03:13:39;;;;;;;4.20;2.40;;;;;;;7.58;77.16;100185.39;107359;1244;99411;-80
2022/12/30 03:16:30;;;;;;;5.40;2.10;;;;;;;7.56;77.21;100196.83;107051;1249;139130;-79
2022/12/30 03:19:00;;;;;;;9.50;2.20;;;;;;;7.55;77.27;100197.05;107271;1246;99133;-79
2022/12/30 03:21:27;;;;;;;6.30;2.50;;;;;;;7.54;77.29;100196.57;107168;1246;138377;-80
2022/12/30 03:29:29;;;;;;;5.40;2.40;;;;;;;7.49;77.29;100213.47;107371;1227;108828;-80
2022/12/30 03:31:55;;;;;;;7.20;2.40;;;;;;;7.47;77.51;100216.04;107224;1251;138838;-79
2022/12/30 03:34:22;;;;;;;5.40;2.20;;;;;;;7.46;77.53;100220.31;107322;1252;99190;-79
2022/12/30 03:36:51;;;;;;;7.60;2.20;;;;;;;7.48;77.63;100223.63;107400;1236;98927;-79
2022/12/30 03:39:22;;;;;;;6.50;2.50;;;;;;;7.48;77.62;100227.52;107371;1237;139696;-80
2022/12/30 03:41:50;;;;;;;8.00;2.90;;;;;;;7.48;77.73;100227.89;107395;1243;115467;-80
2022/12/30 03:44:17;;;;;;;8.50;2.10;;;;;;;7.49;77.71;100231.41;107224;1251;138665;-79
2022/12/30 03:46:44;;;;;;;5.50;2.10;;;;;;;7.47;77.74;100235.91;107266;1254;99486;-80
2022/12/30 03:49:10;;;;;;;4.20;2.20;;;;;;;7.47;77.86;100242.85;107387;1237;97849;-81
2022/12/30 03:51:36;;;;;;;5.00;2.20;;;;;;;7.48;77.91;100243.36;107336;1235;138304;-80
2022/12/30 03:54:01;;;;;;;4.30;2.10;;;;;;;7.49;77.91;100251.68;107343;1244;98983;-80
2022/12/30 03:56:26;;;;;;;5.40;2.30;;;;;;;7.51;77.94;100252.70;107166;1244;138919;-80
2022/12/30 03:58:51;;;;;;;7.00;2.30;;;;;;;7.53;78.05;100259.36;107408;1236;98964;-80
2022/12/30 04:01:17;;;;;;;7.60;2.70;;;;;;;7.57;78.16;100262.59;107299;1245;99197;-80
2022/12/30 04:03:42;;;;;;;8.80;2.40;;;;;;;7.58;78.09;100270.04;107313;1243;139149;-79
2022/12/30 04:06:07;;;;;;;4.50;2.20;;;;;;;7.59;78.25;100268.90;107392;1230;98968;-80
2022/12/30 04:08:33;;;;;;;3.00;1.70;;;;;;;7.61;78.16;100273.83;107221;1244;138463;-80
2022/12/30 04:10:58;;;;;;;7.10;1.90;;;;;;;7.61;78.20;100274.17;107466;1253;99067;-80
2022/12/30 04:13:23;;;;;;;5.90;2.60;;;;;;;7.62;78.18;100272.02;107400;1243;99083;-80
2022/12/30 04:15:50;;;;;;;6.60;2.20;;;;;;;7.64;78.19;100279.39;107422;1243;138483;-80
2022/12/30 04:18:17;;;;;;;9.10;2.40;;;;;;;7.65;78.24;100281.50;107377;1245;106403;-80
2022/12/30 04:20:42;;;;;;;9.30;3.90;;;;;;;7.65;78.21;100290.56;107182;1252;138696;-80
2022/12/30 04:23:08;;;;;;;4.80;2.20;;;;;;;7.65;78.12;100299.27;107417;1244;98996;-80
2022/12/30 04:25:33;;;;;;;5.70;2.10;;;;;;;7.63;78.20;100296.67;107207;1246;99396;-80
2022/12/30 04:27:59;;;;;;;9.60;2.60;;;;;;;7.60;78.22;100294.48;107187;1244;138601;-79
2022/12/30 04:30:25;;;;;;;5.30;1.90;;;;;;;7.58;78.20;100298.64;107448;1246;99773;-80
2022/12/30 04:32:50;;;;;;;10.50;2.50;;;;;;;7.57;78.19;100301.52;107159;1253;138516;-81
2022/12/30 04:35:15;;;;;;;4.70;1.90;;;;;;;7.56;78.29;100308.15;107491;1235;97823;-80
2022/12/30 04:37:41;;;;;;;4.90;1.70;;;;;;;7.57;78.19;100312.55;107305;1246;99114;-79
2022/12/30 04:40:07;;;;;;;5.80;2.10;;;;;;;7.57;78.28;100315.58;107197;1237;138391;-80
2022/12/30 04:42:32;;;;;;;9.40;2.80;;;;;;;7.56;78.30;100313.83;107411;1244;99468;-80
2022/12/30 04:44:58;;;;;;;4.80;2.00;;;;;;;7.53;78.18;100318.02;107178;1244;138476;-80
2022/12/30 04:47:23;;;;;;;7.80;2.60;;;;;;;7.48;78.22;100319.80;107316;1236;100964;-80
2022/12/30 04:49:48;;;;;;;8.20;2.20;;;;;;;7.44;78.22;100329.36;107277;1252;138684;-80
2022/12/30 04:52:14;;;;;;;4.40;1.50;;;;;;;7.39;78.14;100331.15;107444;1235;99084;-80
2022/12/30 04:54:39;;;;;;;5.70;1.90;;;;;;;7.33;78.30;100334.73;107376;1246;98975;-79
2022/12/30 04:57:04;;;;;;;6.30;2.50;;;;;;;7.29;78.31;100338.79;107308;1245;138576;-80
2022/12/30 04:59:30;;;;;;;7.90;2.50;;;;;;;7.26;78.43;100345.11;107321;1245;99061;-78
2022/12/30 05:01:55;;;;;;;6.30;2.10;;;;;;;7.23;78.43;100340.41;107255;1246;138508;-80
2022/12/30 05:04:20;;;;;;;8.40;2.10;;;;;;;7.19;78.36;100340.56;107414;1236;99425;-79
2022/12/30 05:06:46;;;;;;;10.80;2.90;;;;;;;7.15;78.40;100346.75;107435;1243;98360;-79
2022/12/30 05:09:11;;;;;;;11.70;2.60;;;;;;;7.11;78.37;100349.17;107241;1246;139619;-79
2022/12/30 05:11:37;;;;;;;6.80;2.20;;;;;;;7.07;78.49;100352.86;107400;1251;98960;-79
2022/12/30 05:14:02;;;;;;;4.90;1.80;;;;;;;7.04;78.50;100357.96;107285;1252;139118;-80
2022/12/30 05:16:27;;;;;;;5.00;1.80;;;;;;;7.00;78.58;100362.16;107413;1236;98967;-80
2022/12/30 05:18:53;;;;;;;8.60;2.00;;;;;;;6.97;78.49;100363.16;107373;1243;98159;-80
2022/12/30 05:21:18;;;;;;;10.20;2.10;;;;;;;6.92;78.54;100365.09;107195;1253;139342;-80
2022/12/30 05:26:27;;;;;;;9.80;3.50;;;;;;;6.88;78.68;100364.53;107209;1235;138774;-80
2022/12/30 05:28:53;;;;;;;10.40;4.00;;;;;;;6.82;78.56;100371.63;107246;1229;99071;-79
2022/12/30 05:31:19;;;;;;;17.40;4.00;;;;;;;6.78;78.66;100374.05;107505;1243;98972;-79
2022/12/30 05:33:45;;;;;;;11.90;2.90;;;;;;;6.76;78.64;100373.98;107255;1237;138876;-79
2022/12/30 05:36:11;;;;;;;9.00;2.90;;;;;;;6.72;78.70;100378.02;107375;1239;98931;-78
2022/12/30 05:38:37;;;;;;;9.40;2.30;;;;;;;6.69;78.79;100381.30;107296;1238;138536;-80
2022/12/30 05:41:03;;;;;;;10.40;2.30;;;;;;;6.65;78.75;100381.41;107329;1229;99196;-79
2022/12/30 05:43:28;;;;;;;9.80;2.90;;;;;;;6.62;78.78;100389.88;107365;1246;99101;-79
2022/12/30 05:45:54;;;;;;;12.20;2.50;;;;;;;6.58;78.78;100392.64;107303;1236;138472;-79
2022/12/30 05:48:19;;;;;;;7.50;1.70;;;;;;;6.53;78.85;100395.81;107328;1251;99135;-79
2022/12/30 05:50:48;;;;;;;8.30;2.40;;;;;;;6.50;78.90;100396.80;107232;1236;138249;-79
2022/12/30 05:53:13;;;;;;;13.20;3.00;;;;;;;6.46;78.86;100398.52;107299;1252;99167;-78
2022/12/30 05:55:38;;;;;;;12.10;2.60;;;;;;;6.43;78.85;100405.02;107494;1235;97785;-79
2022/12/30 05:58:04;;;;;;;5.90;2.60;;;;;;;6.41;79.04;100404.17;107258;1244;138141;-78
2022/12/30 06:00:29;;;;;;;9.40;2.20;;;;;;;6.39;79.09;100404.60;107356;1236;99086;-78
2022/12/30 06:02:55;;;;;;;8.50;2.50;;;;;;;6.37;79.04;100407.86;107297;1237;138572;-77
2022/12/30 06:05:20;;;;;;;6.50;1.90;;;;;;;6.34;79.10;100412.21;107407;1243;97463;-76
2022/12/30 06:07:45;;;;;;;6.10;1.80;;;;;;;6.32;79.24;100423.63;107585;1235;99921;-78
2022/12/30 06:10:11;;;;;;;9.50;2.60;;;;;;;6.30;79.22;100430.25;107330;1244;138056;-77
2022/12/30 06:12:37;;;;;;;6.60;1.40;;;;;;;6.27;79.24;100438.66;107504;1248;99481;-78
2022/12/30 06:15:02;;;;;;;6.30;1.90;;;;;;;6.24;79.29;100444.80;107351;1244;138406;-78
2022/12/30 06:17:27;;;;;;;9.10;1.90;;;;;;;6.23;79.43;100446.77;107494;1235;97510;-78
2022/12/30 06:19:53;;;;;;;5.90;1.90;;;;;;;6.22;79.49;100450.89;107362;1229;138461;-76
2022/12/30 06:22:18;;;;;;;8.10;1.70;;;;;;;6.18;79.49;100457.52;107610;1229;99093;-78
2022/12/30 06:24:43;;;;;;;7.50;2.10;;;;;;;6.17;79.67;100458.27;107523;1237;99007;-79
2022/12/30 06:27:08;;;;;;;7.60;2.30;;;;;;;6.19;79.70;100461.79;107499;1246;138423;-79
2022/12/30 06:29:34;;;;;;;5.00;1.80;;;;;;;6.19;79.68;100462.31;107512;1243;99158;-79
2022/12/30 06:31:59;;;;;;;5.90;1.70;;;;;;;6.17;79.60;100472.48;107374;1238;139496;-78
2022/12/30 06:34:25;;;;;;;13.10;1.80;;;;;;;6.17;79.77;100469.30;107348;1254;97814;-78
2022/12/30 06:36:50;;;;;;;13.00;2.30;;;;;;;6.15;79.74;100470.23;107299;1246;99022;-81
2022/12/30 06:39:16;;;;;;;10.10;2.70;;;;;;;6.16;79.83;100475.35;107493;1251;138397;-80
2022/12/30 06:41:41;;;;;;;8.50;2.60;;;;;;;6.17;79.78;100477.44;107512;1243;98971;-79
2022/12/30 06:44:06;;;;;;;8.30;2.00;;;;;;;6.17;79.77;100480.63;107514;1244;139086;-79
2022/12/30 06:46:32;;;;;;;10.50;2.40;;;;;;;6.16;79.94;100483.50;107485;1237;99887;-78
2022/12/30 06:48:57;;;;;;;10.10;2.20;;;;;;;6.14;79.91;100483.73;107341;1254;98997;-79
2022/12/30 06:51:24;;;;;;;7.20;2.00;;;;;;;6.12;79.87;100486.29;107588;1257;139001;-76
2022/12/30 06:53:49;;;;;;;5.00;1.60;;;;;;;6.09;79.90;100492.56;107426;1244;113366;-78
2022/12/30 06:56:14;;;;;;;6.80;2.00;;;;;;;6.05;79.88;100496.94;107274;1237;138551;-79
2022/12/30 06:58:40;;;;;;;7.60;2.40;;;;;;;6.01;79.88;100504.14;107320;1246;99215;-78
2022/12/30 07:01:05;;;;;;;6.70;1.90;;;;;;;5.99;80.08;100513.60;107478;1243;98970;-78
2022/12/30 07:03:30;;;;;;;5.60;2.20;;;;;;;5.98;80.11;100518.78;107439;1238;138135;-78
2022/12/30 07:05:56;;;;;;;8.20;2.10;;;;;;;5.97;79.96;100516.32;107538;1227;99025;-79
2022/12/30 07:08:21;;;;;;;6.20;2.60;;;;;;;5.94;79.84;100523.11;107411;1228;138551;-79
2022/12/30 07:10:46;;;;;;;13.90;3.30;;;;;;;5.94;80.14;100526.87;107527;1244;97788;-80
2022/12/30 07:13:13;;;;;;;8.00;2.00;;;;;;;5.92;79.99;100533.48;107371;1246;99090;-80
2022/12/30 07:15:39;;;;;;;9.60;1.90;;;;;;;5.88;79.83;100536.92;107417;1234;138252;-79
2022/12/30 07:18:04;;;;;;;10.80;2.30;;;;;;;5.87;80.06;100541.18;107528;1237;99226;-78
2022/12/30 07:20:29;;;;;;;8.00;2.30;;;;;;;5.85;79.94;100546.56;107382;1251;139648;-77
2022/12/30 07:22:54;;;;;;;8.60;2.50;;;;;;;5.82;79.92;100549.64;107557;1251;98957;-79
2022/12/30 07:25:20;;;;;;;10.10;2.70;;;;;;;5.80;79.90;100553.42;107441;1252;99031;-78
2022/12/30 07:27:45;;;;;;;10.50;2.60;;;;;;;5.79;79.95;100554.88;107304;1236;138463;-80
2022/12/30 07:30:11;;;;;;;10.20;2.90;;;;;;;5.77;79.96;100559.52;107458;1238;99300;-78
2022/12/30 07:32:36;;;;;;;9.80;2.70;;;;;;;5.75;79.77;100557.64;107323;1237;139084;-79
2022/12/30 07:35:02;;;;;;;16.50;4.60;;;;;;;5.73;79.85;100559.27;107384;1243;98967;-78
2022/12/30 07:37:28;;;;;;;17.70;4.20;;;;;;;5.72;79.86;100563.02;107417;1246;111532;-78
2022/12/30 07:39:53;;;;;;;18.90;5.30;;;;;;;5.72;79.79;100568.89;107222;1254;138666;-79
2022/12/30 07:42:18;;;;;;;16.20;4.00;;;;;;;5.71;79.78;100573.15;107453;1243;99058;-78
2022/12/30 07:44:44;;;;;;;15.30;4.70;;;;;;;5.71;79.83;100581.14;107230;1233;138448;-78
2022/12/30 07:47:09;;;;;;;13.90;3.80;;;;;;;5.71;79.81;100586.30;107491;1235;99024;-78
2022/12/30 07:49:34;;;;;;;10.30;2.60;;;;;;;5.70;79.86;100594.10;107308;1238;99015;-79
2022/12/30 07:51:59;;;;;;;14.20;3.60;;;;;;;5.69;79.76;100598.55;107270;1237;138345;-78
2022/12/30 07:54:25;;;;;;;11.60;3.10;;;;;;;5.70;79.73;100605.98;107490;1235;99033;-79
2022/12/30 07:56:50;;;;;;;13.60;4.10;;;;;;;5.69;79.82;100611.15;107230;1245;138597;-78
2022/12/30 07:59:15;;;;;;;13.50;4.30;;;;;;;5.69;79.82;100614.17;107379;1239;97872;-79
2022/12/30 08:01:41;;;;;;;13.30;3.40;;;;;;;5.70;79.79;100615.20;107479;1237;99000;-78
2022/12/30 08:04:10;;;;;;;11.90;3.60;;;;;;;5.71;79.71;100621.74;107147;1244;138324;-79
2022/12/30 08:06:36;;;;;;;7.60;2.50;;;;;;;5.72;79.75;100629.52;107355;1237;98966;-79
2022/12/30 08:09:05;;;;;;;11.90;3.10;;;;;;;5.72;79.80;100634.65;107290;1239;138479;-80
2022/12/30 08:11:31;;;;;;;9.60;2.50;;;;;;;5.74;79.81;100636.39;107366;1253;99056;-79
2022/12/30 08:13:57;;;;;;;12.40;3.30;;;;;;;5.76;79.77;100640.40;107265;1243;138372;-79
2022/12/30 08:16:22;;;;;;;8.30;2.00;;;;;;;5.78;79.87;100649.75;107481;1233;98972;-79
2022/12/30 08:18:47;;;;;;;11.30;2.70;;;;;;;5.81;79.84;100645.25;107378;1231;99203;-78
2022/12/30 08:21:15;;;;;;;15.50;3.40;;;;;;;5.82;79.79;100644.52;107260;1235;139978;-78
2022/12/30 08:23:44;;;;;;;12.50;3.50;;;;;;;5.85;79.73;100650.65;107299;1245;100331;-79
2022/12/30 08:26:12;;;;;;;13.20;3.30;;;;;;;5.89;79.88;100650.59;107304;1235;138919;-77
2022/12/30 08:28:41;;;;;;;12.20;3.90;;;;;;;5.92;79.83;100663.46;107403;1229;106312;-79
2022/12/30 08:31:12;;;;;;;13.10;3.70;;;;;;;5.99;79.86;100665.27;107389;1227;98959;-79
2022/12/30 08:33:38;;;;;;;11.70;3.60;;;;;;;6.03;79.87;100668.16;107307;1236;138514;-78
2022/12/30 08:36:06;;;;;;;8.50;2.90;;;;;;;6.06;79.90;100678.55;107330;1246;99065;-78
2022/12/30 08:38:38;;;;;;;14.70;3.20;;;;;;;6.10;79.77;100682.00;107241;1247;139162;-79
2022/12/30 08:41:14;;;;;;;;;;;;;;;6.12;79.74;100697.73;107348;1239;105775;-80
2022/12/30 08:43:39;;;;;;;10.20;3.80;;;;;;;6.16;79.71;100697.98;107346;1245;99230;-78
2022/12/30 08:46:04;;;;;;;11.80;2.90;;;;;;;6.19;79.76;100698.81;107281;1237;138201;-79
2022/12/30 08:48:30;;;;;;;17.00;3.50;;;;;;;6.21;79.72;100700.38;107462;1236;99119;-79
2022/12/30 08:50:56;;;;;;;8.90;2.60;;;;;;;6.23;79.63;100706.89;107208;1246;138592;-81
2022/12/30 08:53:22;;;;;;;16.20;2.90;;;;;;;6.25;79.61;100710.04;107345;1242;99427;-83
2022/12/30 08:55:47;;;;;;;8.50;3.30;;;;;;;6.26;79.64;100712.85;107414;1250;99359;-81
2022/12/30 08:58:12;;;;;;;11.90;3.10;;;;;;;6.28;79.63;100723.09;107432;1239;99205;-80
2022/12/30 09:00:39;;;;;;;12.10;3.70;;;;;;;6.30;79.61;100727.65;107295;1232;98899;-79
2022/12/30 09:03:05;;;;;;;14.30;3.70;;;;;;;6.34;79.55;100734.48;107380;1237;138510;-82
2022/12/30 09:05:33;;;;;;;14.70;3.80;;;;;;;6.37;79.52;100732.63;107376;1245;98928;-81
2022/12/30 09:07:58;;;;;;;13.20;3.90;;;;;;;6.40;79.50;100738.04;107284;1237;137428;-81
2022/12/30 09:10:24;;;;;;;19.10;4.60;;;;;;;6.43;79.41;100741.17;107437;1237;99236;-81
2022/12/30 09:12:50;;;;;;;16.10;4.70;;;;;;;6.45;79.36;100737.55;107397;1237;98312;-80
2022/12/30 09:15:16;;;;;;;14.10;4.10;;;;;;;6.48;79.44;100742.09;107165;1236;138754;-82
2022/12/30 09:17:41;;;;;;;10.70;3.60;;;;;;;6.54;79.32;100736.10;107257;1229;102894;-80
2022/12/30 09:20:07;;;;;;;10.90;4.30;;;;;;;6.58;79.03;100728.89;107157;1239;139036;-82
2022/12/30 09:22:32;;;;;;;9.60;3.60;;;;;;;6.62;79.14;100730.92;107303;1232;98967;-81
2022/12/30 09:24:57;;;;;;;14.30;3.70;;;;;;;6.66;79.19;100740.77;107414;1236;99061;-82
2022/12/30 09:27:23;;;;;;;17.90;4.20;;;;;;;6.69;79.00;100744.59;107125;1243;138477;-81
2022/12/30 09:29:48;;;;;;;13.00;4.60;;;;;;;6.75;79.03;100743.89;107289;1246;98898;-81
2022/12/30 09:32:13;;;;;;;18.30;3.50;;;;;;;6.79;78.90;100743.44;107095;1243;138417;-83
2022/12/30 09:34:41;;;;;;;15.20;3.00;;;;;;;6.82;78.88;100739.46;107157;1239;99067;-81
2022/12/30 09:37:06;;;;;;;13.70;2.90;;;;;;;6.86;78.74;100742.02;107245;1243;99039;-82
2022/12/30 09:39:32;;;;;;;12.60;3.20;;;;;;;6.91;78.54;100741.17;107210;1241;138415;-81
2022/12/30 09:45:19;;;;;;;10.60;2.90;;;;;;;7.00;78.43;100738.45;107070;1237;138538;-79
2022/12/30 09:47:53;;;;;;;19.20;3.20;;;;;;;7.05;78.44;100734.03;107008;1249;107589;-80
2022/12/30 09:50:38;;;;;;;13.50;4.10;;;;;;;7.10;78.31;100727.88;107015;1238;140261;-81
2022/12/30 09:53:06;;;;;;;11.70;3.30;;;;;;;7.16;78.20;100729.45;107274;1236;99266;-82
2022/12/30 09:55:48;;;;;;;10.60;3.40;;;;;;;7.22;78.09;100723.27;107258;1230;113295;-80
2022/12/30 09:58:22;;;;;;;9.20;2.40;;;;;;;7.26;77.87;100722.23;107502;1237;98949;-81
2022/12/30 10:00:49;;;;;;;9.50;2.50;;;;;;;7.30;77.73;100717.14;107131;1245;107054;-81
2022/12/30 10:03:20;;;;;;;11.40;3.10;;;;;;;7.34;77.66;100719.52;107136;1243;139676;-80
2022/12/30 10:06:21;;;;;;;13.50;3.90;;;;;;;7.39;77.69;100716.36;107180;1239;97538;-79
2022/12/30 10:09:02;;;;;;;18.20;3.80;;;;;;;7.45;77.41;100711.39;107262;1251;140169;-80
2022/12/30 10:11:30;;;;;;;13.50;2.80;;;;;;;7.50;77.18;100710.34;107331;1243;99745;-81
2022/12/30 10:14:17;;;;;;;11.40;2.40;;;;;;;7.54;77.12;100707.77;107156;1251;139316;-81
2022/12/30 10:16:55;;;;;;;8.90;2.70;;;;;;;7.59;77.14;100704.21;107282;1245;98971;-81
2022/12/30 10:19:28;;;;;;;11.80;3.50;;;;;;;7.64;77.08;100703.18;107257;1236;99044;-81
2022/12/30 10:22:21;;;;;;;11.10;3.10;;;;;;;7.66;76.80;100701.67;107186;1253;138871;-80
2022/12/30 10:25:18;;;;;;;12.50;2.40;;;;;;;7.71;76.47;100696.20;107366;1244;99107;-78
2022/12/30 10:27:48;;;;;;;15.60;2.80;;;;;;;7.76;76.42;100688.40;107165;1244;138652;-80
2022/12/30 10:30:17;;;;;;;18.10;3.50;;;;;;;7.79;76.26;100679.75;107327;1236;99085;-80
2022/12/30 10:32:50;;;;;;;10.90;2.30;;;;;;;7.83;75.98;100677.66;107014;1238;138651;-80
2022/12/30 10:35:21;;;;;;;10.70;2.90;;;;;;;7.86;75.94;100683.42;107347;1232;113594;-82
2022/12/30 10:37:49;;;;;;;7.70;2.50;;;;;;;7.88;75.35;100685.83;107276;1248;99170;-81
2022/12/30 10:40:15;;;;;;;9.40;2.70;;;;;;;7.90;75.28;100685.78;107372;1237;106548;-82
2022/12/30 10:42:54;;;;;;;12.20;2.80;;;;;;;7.93;75.33;100688.36;107363;1236;100187;-77
2022/12/30 10:45:43;;;;;;;18.60;3.00;;;;;;;7.96;74.77;100689.88;107268;1244;138213;-83
2022/12/30 10:48:36;;;;;;;7.90;2.60;;;;;;;7.98;74.91;100693.54;107333;1243;113241;-80
2022/12/30 10:51:02;;;;;;;14.40;3.10;;;;;;;8.03;74.82;100696.59;107237;1253;138547;-76
2022/12/30 10:53:30;;;;;;;13.40;3.10;;;;;;;8.04;74.58;100694.94;107357;1242;99061;-77
2022/12/30 10:55:59;;;;;;;11.20;2.90;;;;;;;8.05;74.52;100694.20;107315;1236;138841;-78
2022/12/30 10:58:26;;;;;;;21.20;2.90;;;;;;;8.07;73.96;100702.48;107354;1237;99443;-79
2022/12/30 11:00:52;;;;;;;11.50;2.80;;;;;;;8.09;73.71;100705.64;107342;1246;97939;-79
2022/12/30 11:03:30;;;;;;;11.50;2.50;;;;;;;8.11;73.77;100701.48;107311;1247;138161;-82
2022/12/30 11:06:15;;;;;;;17.90;2.50;;;;;;;8.13;73.24;100707.46;107390;1245;106919;-80
2022/12/30 11:08:41;;;;;;;11.80;2.80;;;;;;;8.14;73.12;100699.96;107278;1227;137853;-79
2022/12/30 11:11:07;;;;;;;17.70;3.20;;;;;;;8.13;72.93;100696.94;107497;1243;99103;-78
2022/12/30 11:16:28;;;;;;;14.70;2.80;;;;;;;8.16;72.64;100689.73;107367;1242;100572;-78
2022/12/30 11:18:56;;;;;;;18.20;2.70;;;;;;;8.19;72.43;100693.23;107368;1246;107526;-79
2022/12/30 11:21:29;;;;;;;10.80;2.10;;;;;;;8.22;72.15;100696.48;107180;1243;139121;-79
2022/12/30 11:23:56;;;;;;;9.30;2.00;;;;;;;8.23;71.68;100708.91;107158;1248;99125;-79
2022/12/30 11:26:25;;;;;;;8.00;2.40;;;;;;;8.23;71.50;100700.55;107277;1236;138073;-77
2022/12/30 11:29:22;;;;;;;10.10;1.90;;;;;;;8.23;71.36;100706.26;107313;1246;100326;-78
2022/12/30 11:31:51;;;;;;;16.40;2.80;;;;;;;8.24;71.23;100698.20;107408;1243;108165;-83
2022/12/30 11:34:22;;;;;;;16.20;2.30;;;;;;;8.25;71.18;100696.02;107323;1233;138250;-79
2022/12/30 11:36:47;;;;;;;18.70;2.80;;;;;;;8.27;71.12;100695.27;107445;1245;98966;-78
2022/12/30 11:39:16;;;;;;;8.60;2.00;;;;;;;8.28;70.79;100699.16;107239;1239;139254;-79
2022/12/30 11:41:47;;;;;;;16.50;4.60;;;;;;;8.28;70.80;100698.59;107387;1243;98974;-78
2022/12/30 11:44:26;;;;;;;15.30;2.70;;;;;;;8.32;70.58;100698.14;107285;1233;139914;-78
2022/12/30 11:47:03;;;;;;;11.40;2.40;;;;;;;8.34;70.72;100688.63;107303;1239;98916;-79
2022/12/30 11:49:49;;;;;;;10.90;2.70;;;;;;;8.38;70.98;100683.16;107436;1229;99014;-78
2022/12/30 11:52:22;;;;;;;13.30;2.50;;;;;;;8.40;70.85;100677.04;107217;1235;138604;-79
2022/12/30 11:54:52;;;;;;;10.80;2.90;;;;;;;8.41;70.79;100667.76;107306;1232;98505;-78
2022/12/30 11:57:33;;;;;;;14.00;2.30;;;;;;;8.43;70.71;100670.19;107366;1253;137903;-78
2022/12/30 12:00:02;;;;;;;14.50;2.80;;;;;;;8.41;70.77;100669.52;107400;1243;98974;-79
2022/12/30 12:02:37;;;;;;;15.30;2.70;;;;;;;8.43;70.57;100678.55;107260;1250;139130;-78
2022/12/30 12:05:26;;;;;;;18.40;3.40;;;;;;;8.43;70.62;100672.14;107385;1236;113289;-79
2022/12/30 12:07:56;;;;;;;9.70;2.00;;;;;;;8.42;70.41;100664.70;107420;1237;99371;-81
2022/12/30 12:10:24;;;;;;;11.50;2.30;;;;;;;8.42;70.57;100667.90;107435;1235;105766;-77
2022/12/30 12:12:58;;;;;;;15.00;2.20;;;;;;;8.43;70.32;100662.70;107420;1248;99079;-80
2022/12/30 12:15:45;;;;;;;21.00;3.00;;;;;;;8.43;70.24;100664.67;107229;1252;137827;-79
2022/12/30 12:18:26;;;;;;;14.30;2.70;;;;;;;8.41;70.24;100664.17;107467;1237;112487;-79
2022/12/30 12:21:13;;;;;;;14.50;2.40;;;;;;;8.41;69.74;100660.28;107343;1243;137895;-81
2022/12/30 12:23:41;;;;;;;10.10;2.90;;;;;;;8.39;70.02;100657.66;107375;1237;108368;-80
2022/12/30 12:26:42;;;;;;;10.70;2.00;;;;;;;8.39;70.02;100660.52;107321;1243;138030;-80